Terminal Aerodrome Forecast
Issued by NWS

Home | Current Version | Previous Version | Text Only | Print | Product List | Glossary On
Versions: 1 2 3 4 5 6 7 8 9 10 11 12 13 14 15 16 17 18 19 20 21 22
600
FTUS46 KSEW 191737
TAFCLM
TAF
KCLM 191737Z 1918/2018 29005KT P6SM -SHRA SCT025 BKN070
      TEMPO 1918/1922 6SM -SHRA BKN025 BKN050
     FM192200 VRB05KT P6SM -SHRA SCT025 BKN070
      TEMPO 1922/2002 6SM -SHRA BKN025 BKN050
     FM200200 VRB03KT P6SM VCSH SCT025 BKN060=

USA.gov is the U.S. government's official web portal to all federal, state and local government web resources and services.